createdAt,value
2023-10-28T00:02:24.722Z,2.40
2023-10-28T00:04:52.470Z,2.28
2023-10-28T00:07:19.109Z,2.20
2023-10-28T00:09:45.732Z,2.65
2023-10-28T00:12:14.020Z,2.10
2023-10-28T00:14:40.570Z,2.17
2023-10-28T00:17:07.031Z,2.22
2023-10-28T00:19:33.490Z,2.40
2023-10-28T00:21:59.971Z,2.50
2023-10-28T00:24:26.623Z,2.50
2023-10-28T00:26:53.104Z,2.40
2023-10-28T00:29:19.732Z,2.63
2023-10-28T00:31:46.362Z,2.33
2023-10-28T00:34:13.885Z,2.33
2023-10-28T00:39:07.738Z,2.60
2023-10-28T00:41:34.319Z,2.45
2023-10-28T00:44:00.798Z,2.53
2023-10-28T00:46:27.254Z,2.50
2023-10-28T00:48:54.470Z,2.60
2023-10-28T00:51:21.241Z,2.25
2023-10-28T00:53:48.038Z,2.50
2023-10-28T00:56:14.809Z,2.40
2023-10-28T00:58:41.745Z,2.28
2023-10-28T01:01:11.362Z,2.70
2023-10-28T01:03:38.115Z,2.47
2023-10-28T01:06:04.734Z,2.20
2023-10-28T01:08:31.277Z,2.70
2023-10-28T01:11:02.680Z,2.28
2023-10-28T01:13:29.458Z,2.40
2023-10-28T01:15:56.020Z,2.40
2023-10-28T01:18:22.755Z,2.40
2023-10-28T01:20:49.292Z,2.63
2023-10-28T01:23:15.837Z,2.20
2023-10-28T01:25:42.309Z,2.22
2023-10-28T01:28:09.278Z,2.47
2023-10-28T01:30:35.831Z,2.20
2023-10-28T01:33:03.798Z,2.35
2023-10-28T01:35:30.369Z,2.40
2023-10-28T01:37:56.889Z,2.50
2023-10-28T01:40:23.360Z,2.22
2023-10-28T01:42:50.059Z,2.40
2023-10-28T01:45:17.013Z,2.30
2023-10-28T01:47:44.217Z,2.47
2023-10-28T01:50:14.792Z,2.60
2023-10-28T01:52:42.490Z,2.40
2023-10-28T01:55:09.231Z,2.40
2023-10-28T01:57:35.921Z,2.30
2023-10-28T02:00:07.304Z,2.30
2023-10-28T02:02:36.784Z,2.50
2023-10-28T02:05:03.471Z,2.30
2023-10-28T02:07:30.004Z,2.35
2023-10-28T02:09:56.800Z,2.53
2023-10-28T02:12:23.261Z,2.20
2023-10-28T02:14:49.730Z,1.90
2023-10-28T02:17:16.243Z,1.88
2023-10-28T02:19:42.770Z,2.15
2023-10-28T02:22:13.819Z,2.25
2023-10-28T02:24:42.845Z,2.30
2023-10-28T02:27:10.032Z,1.95
2023-10-28T02:29:38.645Z,2.20
2023-10-28T02:32:09.850Z,2.15
2023-10-28T02:34:37.653Z,2.20
2023-10-28T02:37:06.563Z,2.22
2023-10-28T02:39:33.561Z,1.70
2023-10-28T02:42:01.361Z,2.17
2023-10-28T02:44:30.422Z,2.17
2023-10-28T02:46:56.961Z,1.88
2023-10-28T02:49:23.462Z,2.10
2023-10-28T02:51:50.208Z,2.30
2023-10-28T02:54:17.628Z,2.20
2023-10-28T02:56:46.194Z,2.40
2023-10-28T02:59:13.090Z,2.20
2023-10-28T03:01:40.868Z,2.13
2023-10-28T03:04:07.554Z,2.20
2023-10-28T03:06:34.087Z,2.03
2023-10-28T03:09:01.400Z,1.90
2023-10-28T03:11:27.991Z,2.10
2023-10-28T03:13:55.877Z,2.47
2023-10-28T03:18:48.902Z,1.67
2023-10-28T03:21:16.464Z,1.88
2023-10-28T03:23:43.446Z,2.10
2023-10-28T03:26:09.997Z,1.95
2023-10-28T03:28:36.562Z,2.13
2023-10-28T03:31:07.585Z,1.92
2023-10-28T03:33:34.103Z,1.92
2023-10-28T03:36:00.942Z,2.28
2023-10-28T03:38:27.588Z,1.80
2023-10-28T03:40:54.223Z,1.90
2023-10-28T03:43:21.890Z,1.90
2023-10-28T03:45:49.435Z,1.90
2023-10-28T03:48:15.985Z,2.10
2023-10-28T03:50:42.454Z,1.95
2023-10-28T03:53:08.901Z,2.08
2023-10-28T03:55:35.369Z,2.00
2023-10-28T03:58:03.436Z,2.20
2023-10-28T04:00:29.957Z,2.00
2023-10-28T04:02:56.502Z,2.00
2023-10-28T04:05:23.286Z,1.83
2023-10-28T04:07:49.788Z,1.73
2023-10-28T04:10:16.325Z,2.33
2023-10-28T04:12:42.798Z,1.80
2023-10-28T04:15:10.307Z,1.80
2023-10-28T04:17:37.311Z,2.03
2023-10-28T04:20:04.524Z,1.90
2023-10-28T04:22:31.056Z,1.85
2023-10-28T04:24:57.561Z,1.75
2023-10-28T04:27:24.167Z,1.67
2023-10-28T04:29:51.739Z,1.80
2023-10-28T04:34:56.296Z,1.98
2023-10-28T04:37:25.963Z,1.55
2023-10-28T04:39:52.436Z,1.80
2023-10-28T04:42:19.917Z,1.50
2023-10-28T04:47:13.235Z,1.60
2023-10-28T04:49:40.572Z,1.73
2023-10-28T04:52:09.455Z,1.73
2023-10-28T04:54:36.404Z,1.70
2023-10-28T04:57:04.621Z,1.65
2023-10-28T04:59:31.185Z,1.58
2023-10-28T05:01:57.798Z,1.60
2023-10-28T05:04:28.534Z,1.58
2023-10-28T05:06:55.321Z,1.67
2023-10-28T05:09:22.592Z,1.40
2023-10-28T05:11:52.036Z,1.50
2023-10-28T05:14:18.653Z,1.30
2023-10-28T05:16:45.198Z,1.48
2023-10-28T05:19:12.408Z,1.40
2023-10-28T05:21:39.373Z,1.20
2023-10-28T05:24:06.275Z,1.30
2023-10-28T05:26:32.850Z,1.65
2023-10-28T05:28:59.719Z,1.23
2023-10-28T05:31:26.788Z,1.50
2023-10-28T05:33:53.605Z,1.48
2023-10-28T05:36:20.188Z,1.60
2023-10-28T05:38:46.886Z,1.40
2023-10-28T05:41:13.424Z,1.40
2023-10-28T05:43:40.038Z,1.63
2023-10-28T05:46:06.470Z,1.45
2023-10-28T05:48:34.056Z,1.40
2023-10-28T05:51:00.909Z,1.50
2023-10-28T05:53:27.637Z,1.50
2023-10-28T05:55:54.203Z,1.23
2023-10-28T05:58:21.245Z,1.30
2023-10-28T06:00:47.767Z,1.20
2023-10-28T06:03:14.279Z,1.20
2023-10-28T06:05:40.824Z,1.30
2023-10-28T06:08:09.436Z,1.30
2023-10-28T06:10:36.086Z,1.10
2023-10-28T06:13:02.953Z,1.20
2023-10-28T06:15:29.466Z,1.30
2023-10-28T06:17:56.065Z,1.35
2023-10-28T06:20:22.630Z,1.25
2023-10-28T06:22:49.159Z,1.33
2023-10-28T06:25:15.846Z,1.23
2023-10-28T06:27:43.034Z,1.30
2023-10-28T06:30:12.854Z,1.40
2023-10-28T06:32:40.143Z,1.30
2023-10-28T06:35:06.963Z,1.20
2023-10-28T06:37:33.855Z,1.20
2023-10-28T06:40:00.433Z,1.23
2023-10-28T06:42:26.975Z,1.30
2023-10-28T06:44:53.803Z,1.15
2023-10-28T06:47:21.579Z,1.10
2023-10-28T06:52:14.630Z,1.08
2023-10-28T06:54:41.171Z,1.10
2023-10-28T06:57:07.873Z,1.10
2023-10-28T06:59:35.976Z,1.20
2023-10-28T07:02:02.693Z,1.20
2023-10-28T07:04:29.251Z,0.93
2023-10-28T07:06:55.710Z,1.10
2023-10-28T07:09:22.210Z,1.10
2023-10-28T07:11:48.899Z,1.10
2023-10-28T07:14:15.469Z,1.08
2023-10-28T07:16:42.628Z,0.95
2023-10-28T07:19:10.933Z,1.10
2023-10-28T07:21:37.561Z,1.10
2023-10-28T07:24:05.850Z,1.17
2023-10-28T07:26:32.333Z,1.25
2023-10-28T07:28:58.856Z,1.13
2023-10-28T07:31:25.630Z,1.13
2023-10-28T07:33:52.125Z,1.27
2023-10-28T07:36:18.649Z,1.10
2023-10-28T07:38:45.195Z,1.38
2023-10-28T07:41:11.829Z,1.30
2023-10-28T07:43:38.455Z,1.15
2023-10-28T07:46:05.837Z,1.23
2023-10-28T07:48:32.366Z,1.30
2023-10-28T07:50:59.019Z,1.00
2023-10-28T07:53:25.600Z,1.20
2023-10-28T07:55:52.094Z,1.10
2023-10-28T07:58:18.629Z,1.15
2023-10-28T08:00:45.532Z,1.10
2023-10-28T08:03:12.113Z,1.30
2023-10-28T08:05:38.706Z,2.22
2023-10-28T08:08:05.190Z,2.15
2023-10-28T08:10:34.144Z,2.50
2023-10-28T08:13:02.024Z,2.78
2023-10-28T08:15:30.320Z,3.38
2023-10-28T08:17:57.386Z,2.38
2023-10-28T08:20:24.354Z,1.92
2023-10-28T08:22:51.005Z,2.20
2023-10-28T08:25:17.544Z,1.60
2023-10-28T08:27:45.681Z,1.50
2023-10-28T08:30:18.236Z,1.70
2023-10-28T08:32:45.202Z,1.30
2023-10-28T08:35:11.913Z,1.48
2023-10-28T08:37:38.613Z,1.40
2023-10-28T08:40:08.527Z,1.30
2023-10-28T08:42:36.255Z,1.38
2023-10-28T08:45:03.553Z,1.20
2023-10-28T08:47:32.699Z,1.10
2023-10-28T08:49:59.869Z,1.20
2023-10-28T08:52:27.153Z,1.50
2023-10-28T08:54:55.522Z,1.20
2023-10-28T08:57:22.326Z,1.20
2023-10-28T08:59:48.908Z,1.40
2023-10-28T09:02:15.453Z,1.17
2023-10-28T09:04:42.733Z,1.05
2023-10-28T09:09:38.941Z,1.20
2023-10-28T09:12:08.242Z,1.17
2023-10-28T09:14:34.701Z,1.10
2023-10-28T09:17:03.953Z,1.00
2023-10-28T09:19:30.627Z,1.20
2023-10-28T09:21:57.152Z,1.08
2023-10-28T09:24:24.137Z,1.10
2023-10-28T09:26:53.829Z,1.10
2023-10-28T09:29:30.100Z,1.10
2023-10-28T09:32:04.224Z,1.10
2023-10-28T09:34:30.701Z,1.20
2023-10-28T09:36:57.946Z,1.05
2023-10-28T09:39:25.351Z,1.52
2023-10-28T09:41:53.464Z,1.20
2023-10-28T09:44:20.799Z,1.08
2023-10-28T09:46:48.785Z,1.15
2023-10-28T09:49:18.869Z,1.20
2023-10-28T09:51:46.662Z,1.35
2023-10-28T09:54:20.432Z,1.10
2023-10-28T09:56:48.502Z,1.17
2023-10-28T09:59:19.373Z,1.20
2023-10-28T10:01:49.322Z,1.20
2023-10-28T10:04:26.334Z,1.13
2023-10-28T10:06:52.934Z,1.10
2023-10-28T10:09:19.673Z,1.30
2023-10-28T10:11:46.939Z,1.30
2023-10-28T10:14:14.217Z,1.20
2023-10-28T10:16:48.615Z,1.08
2023-10-28T10:19:23.798Z,1.20
2023-10-28T10:21:52.409Z,0.93
2023-10-28T10:24:21.869Z,1.00
2023-10-28T10:26:56.147Z,1.13
2023-10-28T10:29:22.949Z,1.30
2023-10-28T10:31:56.934Z,1.23
2023-10-28T10:34:35.003Z,1.10
2023-10-28T10:37:01.714Z,0.98
2023-10-28T10:39:28.396Z,1.20
2023-10-28T10:41:57.744Z,1.08
2023-10-28T10:44:35.657Z,1.02
2023-10-28T10:47:03.092Z,1.20
2023-10-28T10:49:32.708Z,1.20
2023-10-28T10:52:00.500Z,1.10
2023-10-28T10:54:35.133Z,1.30
2023-10-28T10:57:02.066Z,1.20
2023-10-28T10:59:33.091Z,1.15
2023-10-28T11:02:01.737Z,1.00
2023-10-28T11:04:32.591Z,1.05
2023-10-28T11:07:01.065Z,1.30
2023-10-28T11:09:29.841Z,1.38
2023-10-28T11:11:57.078Z,1.55
2023-10-28T11:14:24.694Z,1.50
2023-10-28T11:16:51.953Z,1.90
2023-10-28T11:21:45.206Z,1.90
2023-10-28T11:24:12.176Z,2.15
2023-10-28T11:26:38.710Z,2.08
2023-10-28T11:29:06.961Z,1.90
2023-10-28T11:31:34.638Z,2.13
2023-10-28T11:34:02.060Z,2.17
2023-10-28T11:36:28.688Z,2.00
2023-10-28T11:38:58.547Z,1.90
2023-10-28T11:41:26.233Z,1.80
2023-10-28T11:43:53.261Z,1.80
2023-10-28T11:46:20.704Z,1.70
2023-10-28T11:48:47.300Z,1.90
2023-10-28T11:51:14.260Z,1.95
2023-10-28T11:53:45.133Z,2.08
2023-10-28T11:56:11.880Z,1.50
2023-10-28T11:58:38.362Z,1.92
2023-10-28T12:01:04.980Z,1.80
2023-10-28T12:03:32.024Z,1.80
2023-10-28T12:05:58.570Z,1.90
2023-10-28T12:08:25.151Z,1.80
2023-10-28T12:10:51.885Z,1.70
2023-10-28T12:13:19.346Z,1.80
2023-10-28T12:15:45.849Z,1.63
2023-10-28T12:18:12.712Z,1.60
2023-10-28T12:20:39.202Z,1.70
2023-10-28T12:23:05.838Z,1.63
2023-10-28T12:25:32.892Z,1.70
2023-10-28T12:27:59.479Z,1.98
2023-10-28T12:30:26.024Z,1.77
2023-10-28T12:32:52.707Z,1.70
2023-10-28T12:35:20.099Z,1.63
2023-10-28T12:40:13.697Z,1.38
2023-10-28T12:42:40.219Z,1.58
2023-10-28T12:45:07.579Z,1.52
2023-10-28T12:50:04.924Z,1.80
2023-10-28T12:52:31.752Z,1.52
2023-10-28T12:55:04.384Z,1.55
2023-10-28T12:57:31.735Z,1.70
2023-10-28T12:59:58.292Z,1.73
2023-10-28T13:02:26.256Z,1.63
2023-10-28T13:04:52.946Z,1.60
2023-10-28T13:07:21.392Z,1.60
2023-10-28T13:09:48.170Z,1.30
2023-10-28T13:12:14.854Z,1.60
2023-10-28T13:14:41.421Z,1.40
2023-10-28T13:17:07.900Z,1.40
2023-10-28T13:19:34.453Z,1.65
2023-10-28T13:22:02.031Z,1.55
2023-10-28T13:24:29.737Z,1.65
2023-10-28T13:26:57.131Z,1.85
2023-10-28T13:29:23.911Z,1.70
2023-10-28T13:31:50.972Z,1.65
2023-10-28T13:34:18.141Z,1.35
2023-10-28T13:36:46.174Z,1.67
2023-10-28T13:39:12.713Z,1.65
2023-10-28T13:41:39.433Z,1.67
2023-10-28T13:44:06.579Z,1.52
2023-10-28T13:46:35.889Z,1.80
2023-10-28T13:49:02.450Z,1.88
2023-10-28T13:51:28.998Z,1.90
2023-10-28T13:53:55.489Z,1.85
2023-10-28T13:56:22.220Z,1.42
2023-10-28T13:58:48.760Z,1.55
2023-10-28T14:01:15.206Z,1.77
2023-10-28T14:03:41.776Z,1.70
2023-10-28T14:06:16.028Z,1.58
2023-10-28T14:08:42.753Z,1.70
2023-10-28T14:11:09.489Z,1.67
2023-10-28T14:13:41.784Z,1.70
2023-10-28T14:16:17.557Z,1.40
2023-10-28T14:18:50.299Z,1.50
2023-10-28T14:21:20.689Z,1.55
2023-10-28T14:23:50.625Z,1.60
2023-10-28T14:26:17.756Z,1.77
2023-10-28T14:28:44.985Z,1.70
2023-10-28T14:31:12.144Z,1.48
2023-10-28T14:33:38.997Z,1.30
2023-10-28T14:36:09.626Z,1.65
2023-10-28T14:38:36.458Z,1.52
2023-10-28T14:41:03.227Z,1.50
2023-10-28T14:43:30.121Z,1.50
2023-10-28T14:45:57.125Z,1.65
2023-10-28T14:48:25.072Z,1.48
2023-10-28T14:50:54.409Z,1.77
2023-10-28T14:53:21.071Z,1.65
2023-10-28T14:55:47.701Z,1.58
2023-10-28T14:58:25.943Z,1.67
2023-10-28T15:01:10.030Z,1.40
2023-10-28T15:03:38.269Z,1.50
2023-10-28T15:06:05.633Z,1.83
2023-10-28T15:08:32.462Z,1.90
2023-10-28T15:11:06.269Z,1.80
2023-10-28T15:13:33.125Z,1.83
2023-10-28T15:16:03.783Z,1.83
2023-10-28T15:18:30.852Z,1.88
2023-10-28T15:20:57.454Z,1.80
2023-10-28T15:23:24.702Z,2.05
2023-10-28T15:28:17.722Z,1.90
2023-10-28T15:30:44.352Z,1.77
2023-10-28T15:33:10.982Z,1.58
2023-10-28T15:35:39.347Z,1.80
2023-10-28T15:38:06.344Z,1.98
2023-10-28T15:40:33.398Z,1.58
2023-10-28T15:43:01.387Z,1.60
2023-10-28T15:45:28.257Z,1.70
2023-10-28T15:47:55.703Z,1.98
2023-10-28T15:50:22.336Z,1.58
2023-10-28T15:52:49.919Z,1.55
2023-10-28T15:55:16.711Z,1.75
2023-10-28T15:57:43.273Z,1.95
2023-10-28T16:00:10.171Z,1.70
2023-10-28T16:02:36.835Z,1.60
2023-10-28T16:05:03.595Z,1.63
2023-10-28T16:07:30.232Z,1.60
2023-10-28T16:09:56.721Z,1.60
2023-10-28T16:12:23.386Z,1.60
2023-10-28T16:14:50.114Z,1.88
2023-10-28T16:17:16.690Z,1.85
2023-10-28T16:19:43.257Z,2.00
2023-10-28T16:22:10.154Z,2.17
2023-10-28T16:24:36.690Z,1.98
2023-10-28T16:27:03.610Z,1.90
2023-10-28T16:29:30.125Z,1.90
2023-10-28T16:31:56.651Z,1.80
2023-10-28T16:34:23.342Z,1.90
2023-10-28T16:36:50.205Z,2.00
2023-10-28T16:39:16.688Z,1.80
2023-10-28T16:41:45.661Z,2.05
2023-10-28T16:44:12.288Z,2.20
2023-10-28T16:46:41.234Z,2.00
2023-10-28T16:49:11.145Z,1.92
2023-10-28T16:51:39.719Z,2.00
2023-10-28T16:54:07.673Z,1.88
2023-10-28T16:56:35.732Z,1.67
2023-10-28T16:59:03.911Z,1.70
2023-10-28T17:01:31.159Z,1.92
2023-10-28T17:03:58.184Z,1.80
2023-10-28T17:06:26.417Z,2.10
2023-10-28T17:08:54.080Z,2.20
2023-10-28T17:11:24.745Z,2.08
2023-10-28T17:13:54.656Z,1.80
2023-10-28T17:16:21.835Z,1.90
2023-10-28T17:21:15.125Z,2.10
2023-10-28T17:23:41.596Z,2.17
2023-10-28T17:26:09.571Z,2.10
2023-10-28T17:28:36.396Z,2.20
2023-10-28T17:31:05.817Z,2.15
2023-10-28T17:33:32.791Z,1.90
2023-10-28T17:36:02.319Z,2.28
2023-10-28T17:38:30.659Z,2.22
2023-10-28T17:41:13.352Z,2.13
2023-10-28T17:43:40.426Z,2.30
2023-10-28T17:46:08.492Z,2.33
2023-10-28T17:48:35.025Z,2.65
2023-10-28T17:51:06.423Z,2.17
2023-10-28T17:53:33.724Z,2.30
2023-10-28T17:56:00.370Z,2.30
2023-10-28T17:58:26.884Z,2.38
2023-10-28T18:00:55.793Z,2.47
2023-10-28T18:03:25.366Z,2.60
2023-10-28T18:05:52.531Z,2.30
2023-10-28T18:08:19.195Z,2.13
2023-10-28T18:10:45.908Z,2.20
2023-10-28T18:13:14.280Z,2.30
2023-10-28T18:15:42.820Z,2.22
2023-10-28T18:18:09.715Z,2.15
2023-10-28T18:20:36.609Z,2.40
2023-10-28T18:23:04.007Z,2.53
2023-10-28T18:28:00.145Z,2.20
2023-10-28T18:30:28.686Z,2.20
2023-10-28T18:32:55.299Z,2.25
2023-10-28T18:35:21.950Z,1.98
2023-10-28T18:37:51.411Z,2.35
2023-10-28T18:40:19.004Z,2.22
2023-10-28T18:42:46.020Z,2.05
2023-10-28T18:45:13.978Z,2.05
2023-10-28T18:47:41.090Z,1.95
2023-10-28T18:50:08.838Z,2.40
2023-10-28T18:52:35.926Z,2.00
2023-10-28T18:55:03.537Z,2.33
2023-10-28T18:57:30.327Z,2.10
2023-10-28T18:59:57.516Z,2.15
2023-10-28T19:02:24.071Z,2.10
2023-10-28T19:04:51.682Z,2.25
2023-10-28T19:07:18.415Z,2.15
2023-10-28T19:09:45.019Z,1.98
2023-10-28T19:12:11.717Z,2.10
2023-10-28T19:14:39.168Z,2.13
2023-10-28T19:17:05.748Z,2.17
2023-10-28T19:19:32.354Z,2.15
2023-10-28T19:22:00.663Z,1.92
2023-10-28T19:24:27.447Z,2.00
2023-10-28T19:26:56.083Z,1.83
2023-10-28T19:29:22.773Z,2.08
2023-10-28T19:31:49.424Z,2.08
2023-10-28T19:34:16.907Z,2.08
2023-10-28T19:36:43.588Z,2.22
2023-10-28T19:39:11.421Z,2.00
2023-10-28T19:41:38.051Z,2.03
2023-10-28T19:44:06.312Z,1.70
2023-10-28T19:46:32.978Z,1.80
2023-10-28T19:48:59.549Z,1.80
2023-10-28T19:51:27.303Z,1.75
2023-10-28T19:53:54.776Z,1.90
2023-10-28T19:58:47.807Z,1.73
2023-10-28T20:01:14.434Z,1.83
2023-10-28T20:03:41.844Z,1.55
2023-10-28T20:06:09.569Z,1.70
2023-10-28T20:11:04.618Z,1.60
2023-10-28T20:13:31.975Z,1.40
2023-10-28T20:15:58.698Z,1.65
2023-10-28T20:18:25.911Z,1.50
2023-10-28T20:20:52.847Z,1.40
2023-10-28T20:23:19.403Z,1.65
2023-10-28T20:25:46.687Z,1.90
2023-10-28T20:28:13.549Z,1.45
2023-10-28T20:30:40.233Z,1.60
2023-10-28T20:33:08.253Z,1.65
2023-10-28T20:35:35.498Z,1.70
2023-10-28T20:38:02.090Z,1.48
2023-10-28T20:40:28.663Z,1.65
2023-10-28T20:42:55.303Z,1.60
2023-10-28T20:45:22.101Z,1.55
2023-10-28T20:47:52.761Z,1.60
2023-10-28T20:50:19.856Z,1.50
2023-10-28T20:52:46.654Z,1.60
2023-10-28T20:55:13.140Z,1.35
2023-10-28T20:57:40.598Z,1.60
2023-10-28T21:00:08.514Z,1.42
2023-10-28T21:02:35.252Z,1.50
2023-10-28T21:05:01.938Z,1.40
2023-10-28T21:07:29.717Z,1.45
2023-10-28T21:09:56.337Z,1.23
2023-10-28T21:12:22.848Z,1.50
2023-10-28T21:14:49.970Z,1.40
2023-10-28T21:17:16.769Z,1.40
2023-10-28T21:19:43.546Z,1.45
2023-10-28T21:22:09.998Z,1.30
2023-10-28T21:24:36.661Z,1.20
2023-10-28T21:27:03.214Z,1.35
2023-10-28T21:29:29.760Z,1.35
2023-10-28T21:31:56.262Z,1.20
2023-10-28T21:34:23.463Z,1.30
2023-10-28T21:36:50.071Z,1.30
2023-10-28T21:39:17.640Z,1.10
2023-10-28T21:41:44.573Z,1.30
2023-10-28T21:44:11.407Z,1.20
2023-10-28T21:46:38.042Z,1.30
2023-10-28T21:49:04.760Z,1.30
2023-10-28T21:51:31.233Z,1.30
2023-10-28T21:53:57.745Z,1.15
2023-10-28T21:56:25.395Z,1.20
2023-10-28T21:58:52.736Z,1.20
2023-10-28T22:01:20.801Z,1.30
2023-10-28T22:03:47.520Z,1.70
2023-10-28T22:06:14.304Z,1.50
2023-10-28T22:08:40.876Z,1.40
2023-10-28T22:11:08.358Z,1.25
2023-10-28T22:16:02.194Z,1.40
2023-10-28T22:20:56.626Z,1.40
2023-10-28T22:23:25.255Z,1.50
2023-10-28T22:25:51.745Z,1.55
2023-10-28T22:28:18.809Z,1.30
2023-10-28T22:30:46.480Z,1.02
2023-10-28T22:33:13.858Z,1.40
2023-10-28T22:35:41.364Z,1.50
2023-10-28T22:38:08.106Z,1.50
2023-10-28T22:40:34.709Z,1.33
2023-10-28T22:43:03.052Z,1.10
2023-10-28T22:45:30.146Z,1.38
2023-10-28T22:47:56.795Z,1.23
2023-10-28T22:50:26.292Z,1.13
2023-10-28T22:52:52.899Z,1.50
2023-10-28T22:55:19.525Z,1.23
2023-10-28T22:57:46.301Z,1.20
2023-10-28T23:00:13.244Z,1.23
2023-10-28T23:02:39.955Z,1.23
2023-10-28T23:05:06.733Z,0.90
2023-10-28T23:07:33.226Z,1.20
2023-10-28T23:09:59.736Z,1.20
2023-10-28T23:12:26.829Z,1.00
2023-10-28T23:14:54.556Z,1.20
2023-10-28T23:17:21.088Z,1.00
2023-10-28T23:19:48.995Z,1.00
2023-10-28T23:22:16.624Z,1.08
2023-10-28T23:24:43.291Z,1.00
2023-10-28T23:27:09.851Z,1.00
2023-10-28T23:29:37.549Z,1.00
2023-10-28T23:32:04.720Z,1.05
2023-10-28T23:34:31.230Z,0.85
2023-10-28T23:36:57.707Z,1.00
2023-10-28T23:39:24.261Z,1.00
2023-10-28T23:41:50.953Z,0.90
2023-10-28T23:44:17.507Z,0.93
2023-10-28T23:46:44.454Z,1.00
2023-10-28T23:49:11.024Z,0.82
2023-10-28T23:51:39.340Z,0.85
2023-10-28T23:54:07.227Z,0.70
2023-10-28T23:56:33.858Z,0.88
2023-10-28T23:59:00.502Z,0.80
